Time;durP1;ratioP1;P1;durP2;ratioP2;P2;SDS_P1;SDS_P2;PMS_P1;PMS_P2;Temp;Humidity;BMP_temperature;BMP_pressure;BME280_temperature;BME280_humidity;BME280_pressure;Samples;Min_cycle;Max_cycle;Signal;HPM_P1;HPM_P2
2022/04/04 00:00:25;;;;;;;7.03;4.70;;;;;;;0.94;56.41;99329.38;2619568;54;20038;-67
2022/04/04 00:02:55;;;;;;;6.05;4.75;;;;;;;0.95;56.19;99328.41;2621040;54;20578;-66
2022/04/04 00:05:25;;;;;;;7.25;4.53;;;;;;;0.68;56.52;99334.78;2621401;54;20028;-67
2022/04/04 00:07:57;;;;;;;5.85;4.60;;;;;;;0.72;56.97;99330.16;2619556;54;20038;-66
2022/04/04 00:10:27;;;;;;;5.78;4.38;;;;;;;0.70;56.61;99337.28;2619342;54;20026;-66
2022/04/04 00:12:56;;;;;;;7.82;4.60;;;;;;;0.70;57.02;99332.06;2618954;54;20035;-66
2022/04/04 00:15:27;;;;;;;6.63;5.38;;;;;;;0.79;57.23;99333.16;2618839;54;20030;-66
2022/04/04 00:17:57;;;;;;;6.35;4.82;;;;;;;0.92;57.25;99331.25;2618961;54;20034;-67
2022/04/04 00:20:28;;;;;;;6.30;4.60;;;;;;;0.96;56.82;99324.84;2620580;54;20026;-68
2022/04/04 00:23:01;;;;;;;7.47;5.30;;;;;;;0.99;57.07;99325.44;2618722;54;20038;-67
2022/04/04 00:25:31;;;;;;;5.97;5.13;;;;;;;0.96;56.98;99311.84;2618597;54;20086;-65
2022/04/04 00:28:00;;;;;;;7.93;5.25;;;;;;;0.82;56.69;99310.31;2617198;47;20034;-66
2022/04/04 00:30:30;;;;;;;8.98;5.57;;;;;;;0.72;57.11;99304.97;2617734;54;20038;-67
2022/04/04 00:33:01;;;;;;;7.07;5.32;;;;;;;0.67;57.04;99304.50;2617931;54;20031;-67
2022/04/04 00:35:31;;;;;;;6.88;4.95;;;;;;;0.61;57.58;99304.97;2617620;54;20056;-66
2022/04/04 00:38:06;;;;;;;5.50;4.82;;;;;;;0.55;57.53;99300.22;2618122;39;20434;-65
2022/04/04 00:40:36;;;;;;;6.35;4.75;;;;;;;0.22;57.98;99303.59;2618023;54;20061;-65
2022/04/04 00:43:06;;;;;;;7.50;4.53;;;;;;;0.24;58.26;99304.31;2617933;54;20034;-65
2022/04/04 00:45:35;;;;;;;6.07;4.53;;;;;;;0.30;58.02;99301.25;2617610;54;20030;-68
2022/04/04 00:48:06;;;;;;;6.43;4.25;;;;;;;0.29;58.25;99299.63;2618152;54;20543;-67
2022/04/04 00:50:35;;;;;;;6.15;4.10;;;;;;;0.22;58.32;99296.63;2617994;54;20030;-67
2022/04/04 00:53:10;;;;;;;6.45;4.90;;;;;;;0.08;59.09;99296.84;2618045;54;20034;-67
2022/04/04 00:55:40;;;;;;;6.97;4.15;;;;;;;0.17;58.60;99295.34;2617606;47;20031;-65
2022/04/04 00:58:11;;;;;;;5.38;3.53;;;;;;;0.25;58.76;99285.19;2618482;39;20082;-67
2022/04/04 01:00:43;;;;;;;7.82;4.55;;;;;;;0.29;58.27;99284.00;2617993;54;20038;-67
2022/04/04 01:03:13;;;;;;;5.10;3.53;;;;;;;0.31;58.32;99279.50;2618228;54;20045;-68
2022/04/04 01:05:44;;;;;;;4.25;3.67;;;;;;;0.27;58.85;99279.84;2618185;54;20038;-67
2022/04/04 01:08:17;;;;;;;8.30;4.95;;;;;;;0.38;58.72;99272.09;2617366;54;20027;-66
2022/04/04 01:10:47;;;;;;;4.28;3.88;;;;;;;0.33;58.59;99271.59;2617707;54;20038;-67
2022/04/04 01:13:17;;;;;;;4.80;3.58;;;;;;;0.29;58.67;99275.38;2617607;54;20057;-67
2022/04/04 01:15:47;;;;;;;6.22;4.20;;;;;;;0.22;58.99;99269.81;2617179;54;20039;-66
2022/04/04 01:18:17;;;;;;;6.88;4.70;;;;;;;0.30;58.90;99277.84;2617318;54;20061;-67
2022/04/04 01:20:47;;;;;;;8.05;4.57;;;;;;;0.17;58.68;99272.75;2617731;54;20054;-66
2022/04/04 01:23:25;;;;;;;5.63;4.80;;;;;;;0.26;59.22;99275.59;2617663;54;20033;-66
2022/04/04 01:25:58;;;;;;;6.43;4.63;;;;;;;0.26;59.09;99271.22;2617708;54;20035;-66
2022/04/04 01:28:27;;;;;;;6.45;4.82;;;;;;;0.21;59.34;99268.97;2617847;54;20039;-67
2022/04/04 01:30:57;;;;;;;7.30;4.55;;;;;;;0.27;58.95;99266.84;2618021;54;20026;-66
2022/04/04 01:33:27;;;;;;;7.75;5.30;;;;;;;0.31;59.40;99257.88;2618004;54;20551;-66
2022/04/04 01:35:59;;;;;;;6.78;4.90;;;;;;;0.23;59.44;99268.84;2618369;54;20107;-66
2022/04/04 01:38:29;;;;;;;8.30;5.55;;;;;;;0.30;59.43;99258.81;2618726;39;20411;-68
2022/04/04 01:41:01;;;;;;;6.47;4.93;;;;;;;0.36;59.12;99258.34;2618193;54;20026;-67
2022/04/04 01:43:31;;;;;;;12.00;5.90;;;;;;;0.34;59.34;99247.25;2618400;54;20031;-66
2022/04/04 01:48:43;;;;;;;6.38;5.60;;;;;;;0.23;59.42;99259.28;2617651;54;20031;-66
2022/04/04 01:51:13;;;;;;;6.00;5.00;;;;;;;0.21;59.47;99255.97;2618314;54;20065;-67
2022/04/04 01:53:43;;;;;;;7.55;5.70;;;;;;;0.31;59.51;99250.06;2618126;54;20658;-66
2022/04/04 01:56:16;;;;;;;8.48;5.80;;;;;;;0.38;59.29;99254.69;2617357;47;20042;-67
2022/04/04 01:58:46;;;;;;;7.18;5.75;;;;;;;0.45;59.46;99253.28;2617424;54;20031;-66
2022/04/04 02:01:17;;;;;;;7.15;5.68;;;;;;;0.51;59.33;99253.75;2617486;54;20031;-67
2022/04/04 02:03:49;;;;;;;7.05;6.13;;;;;;;0.48;59.26;99260.00;2617580;54;20081;-67
2022/04/04 02:06:19;;;;;;;8.07;5.95;;;;;;;0.39;59.06;99256.34;2617022;47;20031;-66
2022/04/04 02:08:50;;;;;;;7.78;6.38;;;;;;;0.43;59.30;99259.53;2617227;54;20035;-66
2022/04/04 02:11:24;;;;;;;7.82;5.80;;;;;;;0.45;59.40;99255.91;2618190;54;20033;-65
2022/04/04 02:13:54;;;;;;;9.95;6.55;;;;;;;0.35;59.28;99249.72;2618424;54;20034;-66
2022/04/04 02:16:24;;;;;;;8.57;6.68;;;;;;;0.31;59.19;99258.69;2618380;54;20030;-65
2022/04/04 02:18:54;;;;;;;8.65;6.72;;;;;;;0.23;59.41;99250.66;2618430;54;20054;-66
2022/04/04 02:21:24;;;;;;;9.27;6.55;;;;;;;0.26;59.32;99253.03;2618395;54;20074;-66
2022/04/04 02:23:54;;;;;;;8.75;6.80;;;;;;;0.23;59.80;99255.84;2618373;54;20033;-66
2022/04/04 02:26:27;;;;;;;10.10;6.60;;;;;;;0.24;59.84;99247.09;2618672;54;20614;-66
2022/04/04 02:28:56;;;;;;;7.63;6.55;;;;;;;0.15;59.81;99253.00;2618799;54;20026;-66
2022/04/04 02:31:26;;;;;;;8.40;6.15;;;;;;;0.11;59.89;99251.56;2618713;54;20039;-65
2022/04/04 02:33:56;;;;;;;8.35;5.53;;;;;;;0.11;60.09;99248.97;2617617;47;20034;-65
2022/04/04 02:36:25;;;;;;;7.65;5.75;;;;;;;0.10;60.09;99250.75;2618688;46;20041;-67
2022/04/04 02:38:55;;;;;;;8.27;5.93;;;;;;;0.16;60.06;99255.50;2618583;54;20037;-66
2022/04/04 02:41:27;;;;;;;9.38;6.50;;;;;;;0.19;59.71;99244.84;2618409;54;20543;-66
2022/04/04 02:43:58;;;;;;;8.35;6.43;;;;;;;0.21;59.95;99242.16;2618430;54;20031;-66
2022/04/04 02:46:29;;;;;;;8.98;6.30;;;;;;;0.26;59.89;99247.00;2618455;54;20535;-66
2022/04/04 02:48:59;;;;;;;10.18;6.35;;;;;;;0.24;60.08;99242.75;2618117;54;20052;-66
2022/04/04 02:51:29;;;;;;;8.85;6.50;;;;;;;0.11;59.82;99247.19;2617577;47;20023;-65
2022/04/04 02:53:59;;;;;;;8.05;6.38;;;;;;;-0.22;59.99;99244.53;2618354;54;20041;-66
2022/04/04 02:56:29;;;;;;;7.95;6.78;;;;;;;-0.35;60.88;99247.19;2618272;54;20036;-66
2022/04/04 02:59:03;;;;;;;8.02;6.63;;;;;;;-0.50;61.00;99247.38;2618094;54;20030;-66
2022/04/04 03:01:33;;;;;;;12.57;7.55;;;;;;;-0.51;61.26;99239.69;2618124;54;20035;-66
2022/04/04 03:04:03;;;;;;;8.88;7.07;;;;;;;-0.58;61.43;99235.88;2618547;54;20057;-66
2022/04/04 03:06:35;;;;;;;8.93;6.43;;;;;;;-0.64;61.53;99236.34;2618269;54;20030;-67
2022/04/04 03:09:05;;;;;;;9.38;6.50;;;;;;;-0.59;61.74;99237.66;2617398;47;20077;-66
2022/04/04 03:11:37;;;;;;;9.23;7.30;;;;;;;-0.56;61.62;99232.25;2618132;54;20038;-66
2022/04/04 03:14:07;;;;;;;10.55;7.38;;;;;;;-0.57;62.14;99238.38;2617681;54;20547;-66
2022/04/04 03:16:37;;;;;;;11.70;7.00;;;;;;;-0.48;62.02;99233.47;2618296;54;20026;-66
2022/04/04 03:19:06;;;;;;;10.10;6.90;;;;;;;-0.48;61.72;99225.66;2618599;54;20035;-66
2022/04/04 03:21:36;;;;;;;8.98;6.60;;;;;;;-0.57;61.71;99228.00;2618433;54;20027;-66
2022/04/04 03:24:11;;;;;;;8.98;6.65;;;;;;;-0.83;62.38;99231.63;2618909;54;20030;-66
2022/04/04 03:26:43;;;;;;;7.80;6.47;;;;;;;-0.78;62.59;99227.78;2618719;54;20034;-66
2022/04/04 03:29:13;;;;;;;10.85;6.70;;;;;;;-0.69;62.71;99213.31;2618580;46;20042;-66
2022/04/04 03:31:42;;;;;;;10.23;6.95;;;;;;;-0.68;62.75;99212.34;2618676;54;20027;-67
2022/04/04 03:34:12;;;;;;;12.02;6.70;;;;;;;-0.53;62.67;99213.84;2618361;54;20041;-66
2022/04/04 03:36:42;;;;;;;8.75;7.00;;;;;;;-0.47;62.44;99201.34;2618599;54;20042;-67
2022/04/04 03:39:13;;;;;;;7.90;6.93;;;;;;;-0.50;62.16;99205.81;2618066;54;20034;-65
2022/04/04 03:41:46;;;;;;;11.93;7.38;;;;;;;-0.50;62.08;99204.97;2618059;54;20033;-65
2022/04/04 03:44:15;;;;;;;10.02;6.88;;;;;;;-0.59;62.36;99200.47;2618150;54;20038;-67
2022/04/04 03:46:45;;;;;;;8.85;6.68;;;;;;;-0.64;62.18;99197.38;2618257;54;20034;-66
2022/04/04 03:49:15;;;;;;;10.05;6.85;;;;;;;-0.66;62.37;99199.25;2617354;54;20026;-66
2022/04/04 03:51:44;;;;;;;10.02;6.82;;;;;;;-0.65;62.31;99188.78;2618031;54;20034;-66
2022/04/04 03:54:14;;;;;;;8.60;6.88;;;;;;;-0.72;62.75;99191.94;2617965;54;20037;-67
2022/04/04 03:56:46;;;;;;;8.48;7.07;;;;;;;-0.69;63.00;99189.13;2617868;54;20042;-66
2022/04/04 03:59:16;;;;;;;7.90;7.10;;;;;;;-0.61;62.60;99200.59;2617221;47;20038;-66
2022/04/04 04:01:47;;;;;;;11.13;7.32;;;;;;;-0.42;62.76;99188.84;2617476;54;20038;-66
2022/04/04 04:04:18;;;;;;;12.00;8.25;;;;;;;-0.34;62.79;99192.53;2618106;54;20029;-65
2022/04/04 04:06:48;;;;;;;11.25;7.25;;;;;;;-0.33;62.85;99191.59;2618149;54;20022;-66
2022/04/04 04:09:18;;;;;;;8.50;6.45;;;;;;;-0.27;62.57;99187.72;2617471;47;20034;-65
2022/04/04 04:11:50;;;;;;;8.85;6.43;;;;;;;-0.14;62.43;99185.84;2617899;54;20054;-66
2022/04/04 04:14:20;;;;;;;10.40;6.50;;;;;;;-0.07;61.98;99186.22;2618837;54;20043;-67
2022/04/04 04:16:50;;;;;;;9.90;6.85;;;;;;;0.01;62.22;99181.28;2619439;54;20034;-64
2022/04/04 04:22:01;;;;;;;9.25;6.78;;;;;;;0.12;61.94;99175.22;2621244;54;20033;-62
2022/04/04 04:24:31;;;;;;;8.38;6.47;;;;;;;0.06;61.58;99168.75;2621972;54;20035;-63
2022/04/04 04:27:03;;;;;;;8.52;7.07;;;;;;;-0.07;62.10;99174.03;2622088;39;20454;-63
2022/04/04 04:29:33;;;;;;;8.63;6.88;;;;;;;-0.03;61.93;99178.06;2621350;54;20035;-64
2022/04/04 04:32:02;;;;;;;10.85;6.95;;;;;;;0.02;62.06;99172.53;2619386;54;20037;-63
2022/04/04 04:34:32;;;;;;;28.70;18.17;;;;;;;-0.02;61.56;99171.09;2618114;54;20051;-63
2022/04/04 04:37:02;;;;;;;13.27;9.52;;;;;;;-0.05;62.07;99171.31;2617902;54;20057;-63
2022/04/04 04:39:31;;;;;;;8.60;7.35;;;;;;;-0.11;61.58;99162.22;2618109;54;20042;-63
2022/04/04 04:42:04;;;;;;;9.98;6.88;;;;;;;-0.20;61.94;99165.53;2618244;54;20039;-64
2022/04/04 04:44:33;;;;;;;9.88;7.45;;;;;;;-0.41;62.52;99162.78;2618322;54;20067;-63
2022/04/04 04:47:03;;;;;;;9.98;7.63;;;;;;;-0.41;63.20;99170.56;2617615;54;20038;-63
2022/04/04 04:49:33;;;;;;;9.88;7.88;;;;;;;-0.33;63.07;99159.56;2617404;47;20027;-63
2022/04/04 04:52:02;;;;;;;12.85;8.30;;;;;;;-0.20;62.87;99159.50;2618034;54;20547;-63
2022/04/04 04:54:32;;;;;;;11.35;8.15;;;;;;;-0.23;63.08;99159.72;2618128;54;20554;-63
2022/04/04 04:57:05;;;;;;;9.20;7.82;;;;;;;-0.05;62.90;99160.94;2617933;54;20030;-63
2022/04/04 04:59:34;;;;;;;10.80;7.55;;;;;;;0.07;62.41;99154.78;2618448;54;20034;-63
2022/04/04 05:02:04;;;;;;;13.60;8.48;;;;;;;0.13;61.99;99156.13;2619506;54;20065;-64
2022/04/04 05:04:34;;;;;;;10.25;7.32;;;;;;;0.15;62.32;99151.59;2621299;54;20045;-63
2022/04/04 05:07:05;;;;;;;10.52;7.97;;;;;;;0.26;61.75;99146.41;2620407;54;20623;-63
2022/04/04 05:09:40;;;;;;;9.18;7.75;;;;;;;0.35;61.75;99150.91;2620953;54;20026;-63
2022/04/04 05:12:12;;;;;;;19.88;8.38;;;;;;;0.42;61.40;99138.25;2622737;54;20027;-63
2022/04/04 05:14:48;;;;;;;10.35;8.93;;;;;;;0.46;61.53;99144.88;2621986;54;20027;-64
2022/04/04 05:17:18;;;;;;;11.15;8.95;;;;;;;0.53;61.22;99140.84;2619763;54;20030;-63
2022/04/04 05:19:48;;;;;;;10.85;8.05;;;;;;;0.51;60.96;99136.69;2619489;54;20031;-62
2022/04/04 05:22:17;;;;;;;12.68;8.82;;;;;;;0.51;61.33;99131.50;2621448;54;20030;-62
2022/04/04 05:24:47;;;;;;;10.35;8.35;;;;;;;0.52;61.31;99141.78;2622431;54;20082;-64
2022/04/04 05:27:20;;;;;;;12.02;8.80;;;;;;;0.58;60.89;99137.88;2623390;39;20420;-63
2022/04/04 05:29:49;;;;;;;10.70;8.18;;;;;;;0.62;60.71;99129.72;2622187;47;20026;-63
2022/04/04 05:32:19;;;;;;;12.00;9.13;;;;;;;0.67;60.64;99135.38;2622336;54;20064;-63
2022/04/04 05:34:49;;;;;;;13.02;9.40;;;;;;;0.72;60.93;99132.41;2622526;54;20082;-64
2022/04/04 05:37:19;;;;;;;11.27;8.82;;;;;;;0.78;61.03;99131.91;2622009;54;20038;-63
2022/04/04 05:39:49;;;;;;;13.93;9.40;;;;;;;0.85;60.74;99138.28;2622413;54;20034;-64
2022/04/04 05:42:21;;;;;;;13.20;9.13;;;;;;;0.87;61.19;99135.56;2623772;39;20691;-64
2022/04/04 05:44:51;;;;;;;12.82;8.85;;;;;;;0.85;60.96;99129.63;2622425;54;20035;-63
2022/04/04 05:47:21;;;;;;;14.38;9.80;;;;;;;0.88;60.89;99135.44;2624874;39;20424;-64
2022/04/04 05:49:51;;;;;;;11.98;8.82;;;;;;;0.93;61.03;99138.47;2623927;54;20027;-64
2022/04/04 05:52:23;;;;;;;12.40;9.13;;;;;;;0.96;61.12;99132.22;2624712;54;20043;-63
2022/04/04 05:55:01;;;;;;;13.05;9.18;;;;;;;1.00;60.97;99128.41;2624062;54;20033;-63
2022/04/04 05:57:38;;;;;;;15.55;9.85;;;;;;;1.05;60.70;99130.63;2624712;39;20462;-63
2022/04/04 06:00:13;;;;;;;12.98;9.13;;;;;;;1.08;60.91;99128.63;2624284;54;20035;-63
2022/04/04 06:02:44;;;;;;;13.73;9.50;;;;;;;1.14;61.08;99133.34;2625962;39;20555;-63
2022/04/04 06:05:14;;;;;;;10.82;8.85;;;;;;;1.21;60.84;99134.47;2624105;54;20026;-64
2022/04/04 06:07:45;;;;;;;11.75;8.85;;;;;;;1.25;60.63;99140.25;2624022;54;20038;-63
2022/04/04 06:10:16;;;;;;;13.80;9.90;;;;;;;1.30;60.54;99127.69;2623285;54;20027;-64
2022/04/04 06:12:48;;;;;;;13.15;9.55;;;;;;;1.31;60.02;99128.53;2623993;54;20043;-64
2022/04/04 06:15:18;;;;;;;12.30;9.25;;;;;;;1.34;60.47;99129.09;2623976;54;20038;-63
2022/04/04 06:17:47;;;;;;;14.32;9.73;;;;;;;1.37;60.23;99134.06;2623806;54;20026;-63
2022/04/04 06:20:17;;;;;;;11.30;8.93;;;;;;;1.42;60.13;99136.28;2623570;54;20031;-64
2022/04/04 06:22:47;;;;;;;12.32;9.77;;;;;;;1.46;59.74;99129.84;2623733;54;20598;-64
2022/04/04 06:25:16;;;;;;;14.07;9.77;;;;;;;1.38;59.88;99127.88;2622229;54;20042;-63
2022/04/04 06:27:49;;;;;;;13.60;10.30;;;;;;;1.42;59.94;99134.50;2621226;54;20034;-63
2022/04/04 06:30:20;;;;;;;12.18;8.70;;;;;;;1.52;60.06;99133.75;2621445;47;20027;-63
2022/04/04 06:32:50;;;;;;;12.57;9.48;;;;;;;1.51;59.84;99129.47;2621791;54;20038;-64
2022/04/04 06:35:20;;;;;;;17.83;10.68;;;;;;;1.52;59.40;99128.53;2621201;54;20610;-63
2022/04/04 06:37:49;;;;;;;11.65;9.27;;;;;;;1.58;59.72;99118.41;2621095;54;20054;-63
2022/04/04 06:40:19;;;;;;;12.48;9.07;;;;;;;1.69;59.67;99127.97;2621322;54;20110;-64
2022/04/04 06:42:52;;;;;;;14.32;10.07;;;;;;;1.72;59.41;99132.94;2622043;47;20041;-63
2022/04/04 06:45:21;;;;;;;13.05;9.48;;;;;;;1.80;59.80;99127.06;2622574;54;20022;-63
2022/04/04 06:47:51;;;;;;;18.45;10.60;;;;;;;1.93;59.34;99133.72;2621658;54;20035;-62
2022/04/04 06:50:21;;;;;;;14.15;9.23;;;;;;;1.94;59.13;99135.38;2623544;54;20034;-64
2022/04/04 06:52:52;;;;;;;11.82;9.05;;;;;;;1.99;58.68;99122.75;2624373;39;20459;-62
2022/04/04 06:55:42;;;;;;;13.35;9.35;;;;;;;2.03;58.77;99122.50;2624386;54;20153;-62
2022/04/04 06:58:15;;;;;;;10.82;8.73;;;;;;;2.10;58.90;99113.22;2623801;54;20038;-63
2022/04/04 07:00:45;;;;;;;11.63;8.88;;;;;;;2.05;58.49;99112.78;2624382;47;20018;-63
2022/04/04 07:03:15;;;;;;;11.48;9.32;;;;;;;2.08;58.64;99110.75;2625034;54;20038;-63
2022/04/04 07:05:45;;;;;;;14.95;9.80;;;;;;;2.20;58.85;99108.84;2624807;47;20566;-62
2022/04/04 07:08:15;;;;;;;11.38;8.80;;;;;;;2.29;58.46;99108.06;2626007;39;20396;-63
2022/04/04 07:10:44;;;;;;;12.20;9.13;;;;;;;2.39;57.94;99097.66;2625736;54;20594;-63
2022/04/04 07:13:17;;;;;;;11.82;9.43;;;;;;;2.40;58.04;99097.50;2624639;54;20086;-62
2022/04/04 07:15:48;;;;;;;12.13;9.52;;;;;;;2.52;57.62;99100.03;2623258;54;20030;-63
2022/04/04 07:18:18;;;;;;;12.70;10.13;;;;;;;2.59;57.60;99085.47;2620249;54;20034;-63
2022/04/04 07:20:47;;;;;;;13.32;9.45;;;;;;;2.59;57.31;99086.31;2619569;54;20061;-61
2022/04/04 07:23:17;;;;;;;12.93;8.93;;;;;;;2.66;56.80;99076.16;2618976;54;20031;-62
2022/04/04 07:25:47;;;;;;;12.20;8.95;;;;;;;2.73;57.03;99085.06;2618804;54;20027;-62
2022/04/04 07:28:20;;;;;;;12.02;9.00;;;;;;;2.76;56.33;99079.59;2618687;54;20031;-63
2022/04/04 07:30:50;;;;;;;11.85;9.48;;;;;;;2.77;56.15;99076.00;2618816;54;20826;-63
2022/04/04 07:33:19;;;;;;;12.25;9.07;;;;;;;2.76;55.49;99068.31;2625203;54;20093;-63
2022/04/04 07:35:50;;;;;;;11.48;8.75;;;;;;;2.86;55.19;99077.00;2619909;54;20038;-63
2022/04/04 07:38:19;;;;;;;11.70;8.73;;;;;;;2.92;55.05;99072.03;2618404;54;20070;-63
2022/04/04 07:40:49;;;;;;;10.77;8.13;;;;;;;3.04;54.97;99071.91;2619245;54;20126;-63
2022/04/04 07:43:21;;;;;;;11.48;7.65;;;;;;;3.15;54.63;99077.81;2619114;54;20034;-63
2022/04/04 07:45:51;;;;;;;13.85;9.18;;;;;;;3.22;54.24;99065.84;2619071;54;20041;-63
2022/04/04 07:48:21;;;;;;;11.82;9.40;;;;;;;3.32;54.18;99062.41;2618595;54;20038;-63
2022/04/04 07:50:51;;;;;;;12.25;8.85;;;;;;;3.41;53.93;99061.56;2618829;54;20041;-63
2022/04/04 07:53:22;;;;;;;12.05;9.18;;;;;;;3.57;53.56;99056.56;2618885;54;20530;-63
2022/04/04 07:55:52;;;;;;;10.52;8.55;;;;;;;3.64;52.72;99056.84;2618694;54;20134;-63
2022/04/04 07:58:24;;;;;;;17.88;8.95;;;;;;;3.68;52.81;99051.19;2618088;54;20027;-63
2022/04/04 08:00:54;;;;;;;12.95;9.02;;;;;;;3.79;52.42;99057.19;2620520;47;20026;-63
2022/04/04 08:03:24;;;;;;;9.82;8.30;;;;;;;3.96;52.43;99045.97;2622804;54;20038;-63
2022/04/04 08:05:55;;;;;;;11.35;8.80;;;;;;;4.10;52.10;99045.50;2622128;54;20569;-65
2022/04/04 08:08:24;;;;;;;9.20;7.72;;;;;;;4.23;51.35;99042.53;2622226;53;20026;-62
2022/04/04 08:10:54;;;;;;;9.88;8.75;;;;;;;4.28;50.87;99039.47;2622391;54;20022;-63
2022/04/04 08:13:26;;;;;;;10.93;7.78;;;;;;;4.33;50.41;99037.25;2620561;54;20038;-63
2022/04/04 08:15:56;;;;;;;9.20;7.85;;;;;;;4.38;48.89;99037.63;2620387;54;20042;-63
2022/04/04 08:18:26;;;;;;;10.60;7.50;;;;;;;4.41;48.32;99040.78;2622240;54;20030;-63
2022/04/04 08:20:57;;;;;;;8.38;7.43;;;;;;;4.48;47.76;99033.16;2619922;54;20030;-63
2022/04/04 08:23:33;;;;;;;8.27;7.25;;;;;;;4.57;47.25;99028.81;2619068;54;20037;-63
2022/04/04 08:26:03;;;;;;;7.60;6.78;;;;;;;4.61;46.92;99017.06;2619085;54;20060;-62
2022/04/04 08:28:35;;;;;;;9.20;8.13;;;;;;;4.71;47.18;99015.22;2619453;39;20411;-63
2022/04/04 08:31:04;;;;;;;11.07;8.27;;;;;;;4.85;47.31;99009.44;2619263;54;20038;-63
2022/04/04 08:33:34;;;;;;;9.00;7.28;;;;;;;4.93;46.05;99006.88;2618937;54;20574;-64
2022/04/04 08:36:04;;;;;;;10.48;7.00;;;;;;;5.03;45.62;98998.94;2618682;54;20039;-63
2022/04/04 08:38:37;;;;;;;7.88;6.45;;;;;;;4.99;45.54;99002.84;2618837;54;20046;-64
2022/04/04 08:41:08;;;;;;;13.00;9.52;;;;;;;5.03;45.93;98991.09;2619634;31;20528;-64
2022/04/04 08:43:43;;;;;;;8.13;6.60;;;;;;;5.11;45.34;98992.94;2618332;47;20547;-63
2022/04/04 08:46:13;;;;;;;9.45;7.53;;;;;;;5.25;45.35;98996.81;2618595;54;20043;-62
2022/04/04 08:48:43;;;;;;;11.60;8.45;;;;;;;5.36;45.28;98988.69;2618849;54;20070;-62
2022/04/04 08:51:14;;;;;;;8.65;6.95;;;;;;;5.42;44.46;98983.63;2618267;47;20026;-62
2022/04/04 08:53:44;;;;;;;7.63;6.13;;;;;;;5.49;43.86;98986.47;2619555;54;20045;-62
2022/04/04 08:56:13;;;;;;;10.43;5.85;;;;;;;5.48;43.64;98984.81;2619489;39;20416;-62
2022/04/04 08:58:46;;;;;;;9.65;7.10;;;;;;;5.47;42.89;98984.00;2619199;54;20030;-62
2022/04/04 09:01:16;;;;;;;7.20;5.75;;;;;;;5.55;43.46;98977.13;2619837;39;20125;-62
2022/04/04 09:03:45;;;;;;;7.90;6.40;;;;;;;5.73;43.56;98975.28;2618895;54;20038;-62
2022/04/04 09:06:15;;;;;;;6.30;5.18;;;;;;;5.86;43.01;98975.66;2618673;54;20048;-64
2022/04/04 09:08:47;;;;;;;9.88;6.78;;;;;;;5.89;42.82;98985.03;2617614;54;20039;-63
2022/04/04 09:11:17;;;;;;;7.80;5.78;;;;;;;5.86;42.22;98964.34;2619010;39;20439;-64
2022/04/04 09:14:06;;;;;;;6.47;5.75;;;;;;;5.99;42.60;98964.75;2618734;54;20034;-63
2022/04/04 09:16:37;;;;;;;6.38;5.35;;;;;;;6.07;42.07;98951.63;2619059;54;20034;-64
2022/04/04 09:19:07;;;;;;;8.35;5.60;;;;;;;6.19;42.05;98947.72;2618733;54;20042;-63
2022/04/04 09:21:38;;;;;;;6.68;6.03;;;;;;;6.18;41.14;98938.22;2618920;54;20035;-63
2022/04/04 09:24:11;;;;;;;7.47;6.13;;;;;;;6.13;41.29;98940.50;2618777;54;20034;-63
2022/04/04 09:26:44;;;;;;;8.13;6.18;;;;;;;6.13;41.91;98934.44;2620651;54;20042;-63
2022/04/04 09:29:20;;;;;;;6.43;5.82;;;;;;;6.24;41.91;98931.50;2621875;54;20035;-63
2022/04/04 09:31:58;;;;;;;8.65;6.53;;;;;;;6.40;41.64;98923.63;2625457;54;20090;-64
2022/04/04 09:34:28;;;;;;;6.22;5.57;;;;;;;6.48;41.87;98929.88;2625759;47;20034;-63
2022/04/04 09:36:58;;;;;;;7.65;6.35;;;;;;;6.55;41.89;98917.75;2625459;54;20034;-63
2022/04/04 09:39:28;;;;;;;6.25;5.65;;;;;;;6.73;41.06;98918.41;2625822;54;20038;-63
2022/04/04 09:42:00;;;;;;;7.47;5.05;;;;;;;6.76;40.95;98912.81;2628360;39;20420;-64
2022/04/04 09:44:33;;;;;;;10.25;5.88;;;;;;;6.77;40.22;98890.81;2625492;47;20045;-63
2022/04/04 09:47:02;;;;;;;5.63;5.13;;;;;;;6.74;40.09;98887.72;2624823;54;20037;-62
2022/04/04 09:49:40;;;;;;;6.38;5.20;;;;;;;6.77;40.19;98887.34;2625830;39;20438;-62
2022/04/04 09:52:12;;;;;;;7.72;6.07;;;;;;;6.88;40.19;98877.31;2625500;54;20039;-63
2022/04/04 09:54:46;;;;;;;7.55;5.80;;;;;;;7.01;40.22;98876.81;2625760;54;20022;-63
2022/04/04 09:57:20;;;;;;;7.53;5.00;;;;;;;7.02;38.71;98865.31;2624702;54;20030;-61
2022/04/04 09:59:53;;;;;;;7.40;4.43;;;;;;;6.84;37.44;98881.28;2624527;54;20027;-63
2022/04/04 10:02:23;;;;;;;7.85;4.78;;;;;;;6.81;37.69;98860.59;2624018;39;20430;-62
2022/04/04 10:04:55;;;;;;;6.55;4.97;;;;;;;6.82;38.01;98869.31;2624855;54;20047;-62
2022/04/04 10:07:25;;;;;;;5.30;4.40;;;;;;;6.95;37.18;98859.09;2625392;54;20034;-63
2022/04/04 10:09:54;;;;;;;6.43;4.45;;;;;;;7.01;37.40;98858.41;2625108;39;20431;-63
2022/04/04 10:12:24;;;;;;;5.88;4.30;;;;;;;6.94;36.65;98847.75;2624862;54;20043;-63
2022/04/04 10:14:56;;;;;;;6.90;4.40;;;;;;;7.14;36.43;98842.09;2625108;54;20082;-63
2022/04/04 10:17:26;;;;;;;6.13;4.72;;;;;;;7.25;36.97;98844.38;2616888;54;20038;-67
2022/04/04 10:19:56;;;;;;;6.13;4.72;;;;;;;7.44;36.18;98848.41;2617457;54;20043;-67
2022/04/04 10:22:27;;;;;;;7.88;5.22;;;;;;;7.41;36.46;98831.16;2617547;54;20030;-67
2022/04/04 10:24:59;;;;;;;6.97;4.97;;;;;;;7.57;37.11;98832.06;2619477;54;20026;-67
2022/04/04 10:27:29;;;;;;;8.70;5.15;;;;;;;7.55;36.79;98824.38;2622267;54;20050;-67
2022/04/04 10:30:06;;;;;;;8.00;5.47;;;;;;;7.45;36.25;98818.47;2622855;54;20030;-67
2022/04/04 10:32:36;;;;;;;8.80;5.75;;;;;;;7.38;36.81;98817.53;2623966;39;20449;-65
2022/04/04 10:35:13;;;;;;;8.15;5.40;;;;;;;7.32;36.51;98808.53;2623573;47;20555;-65
2022/04/04 10:37:46;;;;;;;8.70;5.32;;;;;;;7.56;37.42;98802.31;2623036;54;20037;-69
2022/04/04 10:40:24;;;;;;;6.20;5.35;;;;;;;7.82;37.45;98801.97;2622943;54;20034;-69
2022/04/04 10:43:11;;;;;;;6.63;5.57;;;;;;;8.05;36.20;98795.91;2621853;54;20035;-66
2022/04/04 10:45:58;;;;;;;6.80;5.60;;;;;;;8.02;36.46;98797.06;2621769;54;20026;-68
2022/04/04 10:48:32;;;;;;;6.18;5.57;;;;;;;8.09;36.07;98784.03;2621237;54;20086;-69
2022/04/04 10:51:06;;;;;;;;;;;;;;;8.21;35.97;98771.28;2621724;54;20045;-68
2022/04/04 10:53:43;;;;;;;5.75;5.13;;;;;;;8.41;35.92;98764.53;2620844;54;19938;-66
2022/04/04 10:56:14;;;;;;;5.72;4.70;;;;;;;8.59;35.59;98758.91;2619180;47;20065;-66
2022/04/04 10:58:43;;;;;;;7.05;5.20;;;;;;;8.49;35.34;98756.53;2618976;54;20034;-69
2022/04/04 11:01:20;;;;;;;5.88;4.72;;;;;;;8.59;35.41;98749.19;2620069;39;20443;-67
2022/04/04 11:04:01;;;;;;;5.93;4.95;;;;;;;8.78;34.72;98728.56;2622483;54;20058;-68
2022/04/04 11:09:32;;;;;;;8.07;5.50;;;;;;;8.94;34.55;98699.38;2624242;54;20042;-69
2022/04/04 11:12:14;;;;;;;5.78;5.18;;;;;;;8.84;33.88;98717.28;2621353;54;20151;-67
2022/04/04 11:14:54;;;;;;;6.85;5.22;;;;;;;8.65;34.86;98702.81;2619279;39;20419;-65
2022/04/04 11:17:36;;;;;;;7.13;5.20;;;;;;;8.73;34.69;98710.63;2618399;54;20039;-68
2022/04/04 11:20:21;;;;;;;5.82;4.28;;;;;;;8.66;33.81;98712.38;2618250;54;20028;-68
2022/04/04 11:22:55;;;;;;;5.10;4.60;;;;;;;8.72;33.42;98703.75;2618387;54;20042;-68
2022/04/04 11:25:27;;;;;;;;;;;;;;;8.78;33.36;98694.31;2618518;54;21029;-68
2022/04/04 11:27:57;;;;;;;5.45;4.80;;;;;;;8.74;33.22;98685.13;2618238;54;19945;-68
2022/04/04 11:30:27;;;;;;;7.53;5.20;;;;;;;8.54;33.49;98696.22;2618364;54;20098;-69
2022/04/04 11:33:00;;;;;;;5.15;4.65;;;;;;;8.42;33.67;98687.94;2617843;47;20078;-68
2022/04/04 11:35:31;;;;;;;4.95;4.55;;;;;;;8.62;33.62;98680.31;2618135;54;20034;-68
2022/04/04 11:38:03;;;;;;;5.38;4.43;;;;;;;8.88;32.99;98677.19;2618161;54;20034;-66
2022/04/04 11:40:34;;;;;;;9.93;4.50;;;;;;;8.99;33.09;98677.72;2620168;39;20397;-66
2022/04/04 11:43:08;;;;;;;5.10;4.32;;;;;;;8.94;32.62;98678.28;2619528;54;20037;-66
2022/04/04 11:45:39;;;;;;;6.68;4.95;;;;;;;8.88;32.44;98674.53;2619053;54;20578;-68
2022/04/04 11:48:14;;;;;;;4.50;4.10;;;;;;;8.93;32.27;98658.16;2619216;54;20037;-69
2022/04/04 11:50:44;;;;;;;4.45;4.05;;;;;;;8.86;32.12;98658.09;2620787;54;20063;-68
2022/04/04 11:53:16;;;;;;;4.30;3.90;;;;;;;8.96;32.11;98641.97;2621927;54;20034;-67
2022/04/04 11:55:47;;;;;;;5.03;4.30;;;;;;;9.06;32.07;98660.97;2622515;54;20030;-67
2022/04/04 11:58:20;;;;;;;5.22;4.35;;;;;;;9.06;31.51;98653.06;2622245;54;20030;-67
2022/04/04 12:00:54;;;;;;;4.78;4.32;;;;;;;9.10;31.58;98649.06;2623352;54;20044;-67
2022/04/04 12:03:27;;;;;;;4.50;4.10;;;;;;;9.05;31.97;98629.50;2619988;54;20030;-67